Terminal Aerodrome Forecast
Issued by NWS

Home | Current Version | Previous Version | Text Only | Print | Product List | Glossary On
Versions: 1 2 3 4 5 6 7 8 9 10 11 12 13 14 15 16 17 18 19 20
000
FTUS43 KGRR 250500
TAFMKG
TAF
KMKG 250540Z 2506/2606 20004KT 4SM BR BKN080
     FM250630 22005KT 4SM BR SCT007 BKN040
     FM251230 28012G20KT P6SM SCT040=

USA.gov is the U.S. government's official web portal to all federal, state and local government web resources and services.